Time;durP1;ratioP1;P1;durP2;ratioP2;P2;SDS_P1;SDS_P2;PMS_P1;PMS_P2;Temp;Humidity;BMP_temperature;BMP_pressure;BME280_temperature;BME280_humidity;BME280_pressure;Samples;Min_cycle;Max_cycle;Signal;HPM_P1;HPM_P2
2021/09/26 00:01:47;;;;;;;7.95;7.25;;;;;;;20.30;72.83;95814.69;5032059;28;20226;-86
2021/09/26 00:04:13;;;;;;;7.72;7.03;;;;;;;20.21;73.49;95803.78;5032518;28;20240;-86
2021/09/26 00:06:39;;;;;;;7.72;7.03;;;;;;;20.06;74.27;95813.13;5032365;28;20205;-88
2021/09/26 00:09:07;;;;;;;7.70;7.05;;;;;;;20.11;74.42;95818.47;5032452;28;20293;-86
2021/09/26 00:11:35;;;;;;;7.50;6.88;;;;;;;20.16;73.91;95816.75;5032131;28;20256;-86
2021/09/26 00:14:01;;;;;;;7.18;6.45;;;;;;;20.20;73.56;95823.13;5031717;28;20198;-86
2021/09/26 00:16:28;;;;;;;6.95;6.40;;;;;;;20.30;73.24;95825.13;5031940;28;20259;-86
2021/09/26 00:18:55;;;;;;;6.43;5.90;;;;;;;20.33;73.09;95827.28;5031734;28;20721;-86
2021/09/26 00:21:21;;;;;;;6.75;6.15;;;;;;;20.35;72.43;95833.88;5043018;28;20197;-87
2021/09/26 00:23:49;;;;;;;6.43;5.82;;;;;;;20.37;71.93;95831.06;5052132;28;20206;-86
2021/09/26 00:26:17;;;;;;;5.68;5.28;;;;;;;20.35;72.24;95823.44;5051333;28;20576;-87
2021/09/26 00:28:43;;;;;;;6.00;5.38;;;;;;;20.31;72.14;95827.53;5050803;28;20245;-85
2021/09/26 00:31:10;;;;;;;5.93;5.25;;;;;;;20.37;72.04;95831.06;5032249;28;20202;-86
2021/09/26 00:33:36;;;;;;;5.20;4.80;;;;;;;20.39;71.81;95831.63;5031701;28;20209;-87
2021/09/26 00:36:03;;;;;;;8.68;4.85;;;;;;;20.38;71.47;95830.06;5031529;28;20206;-87
2021/09/26 00:38:29;;;;;;;4.93;4.55;;;;;;;20.42;71.02;95825.91;5031409;28;20260;-86
2021/09/26 00:40:56;;;;;;;7.93;5.00;;;;;;;20.28;71.37;95827.97;5031398;28;20252;-87
2021/09/26 00:43:25;;;;;;;5.15;4.75;;;;;;;20.23;72.29;95821.84;5031115;28;20210;-87
2021/09/26 00:45:51;;;;;;;5.10;4.70;;;;;;;20.26;71.75;95822.19;5031575;28;20198;-87
2021/09/26 00:48:18;;;;;;;5.78;4.70;;;;;;;20.28;71.24;95822.75;5031439;28;20213;-87
2021/09/26 00:50:44;;;;;;;4.55;4.15;;;;;;;20.31;71.13;95821.50;5047927;28;20806;-86
2021/09/26 00:53:11;;;;;;;5.25;4.60;;;;;;;20.26;71.62;95819.56;5051165;28;20205;-88
2021/09/26 00:55:38;;;;;;;4.70;4.30;;;;;;;20.34;70.95;95815.81;5050789;28;20202;-86
2021/09/26 00:58:05;;;;;;;4.50;4.20;;;;;;;20.40;70.79;95816.75;5043421;28;20198;-86
2021/09/26 01:00:33;;;;;;;4.35;3.90;;;;;;;20.42;70.61;95812.84;5030931;28;20272;-86
2021/09/26 01:02:59;;;;;;;4.57;4.18;;;;;;;20.47;70.48;95817.38;5030962;28;20198;-86
2021/09/26 01:05:27;;;;;;;4.85;4.30;;;;;;;20.48;70.11;95811.91;5030731;28;20724;-86
2021/09/26 01:08:10;;;;;;;4.72;4.22;;;;;;;20.46;70.20;95813.19;5030831;28;20202;-86
2021/09/26 01:10:43;;;;;;;4.53;4.13;;;;;;;20.47;70.36;95806.94;5031029;28;20874;-86
2021/09/26 01:13:22;;;;;;;5.15;4.28;;;;;;;20.48;70.31;95813.75;5030710;28;20669;-85
2021/09/26 01:16:07;;;;;;;5.40;4.10;;;;;;;20.49;70.24;95817.94;5030650;28;20202;-87
2021/09/26 01:18:47;;;;;;;4.28;3.80;;;;;;;20.51;70.33;95818.50;5030704;28;20261;-87
2021/09/26 01:21:25;;;;;;;4.53;4.13;;;;;;;20.47;70.55;95817.38;5040990;28;20271;-85
2021/09/26 01:24:32;;;;;;;4.22;3.92;;;;;;;20.40;70.63;95817.50;5050749;28;20201;-87
2021/09/26 01:27:22;;;;;;;4.18;3.88;;;;;;;20.43;70.71;95818.88;5050128;28;20224;-86
2021/09/26 01:30:19;;;;;;;4.50;4.20;;;;;;;20.45;70.88;95817.63;5011171;28;20227;-86
2021/09/26 01:32:55;;;;;;;4.80;4.40;;;;;;;20.40;70.74;95835.06;5001749;28;20198;-86
2021/09/26 01:35:27;;;;;;;4.32;3.92;;;;;;;20.42;70.92;95835.59;5010745;28;20203;-88
2021/09/26 01:38:07;;;;;;;4.40;4.00;;;;;;;20.44;71.13;95841.38;5010581;28;20199;-87
2021/09/26 01:40:46;;;;;;;4.35;3.95;;;;;;;20.43;70.88;95834.56;5010534;28;20240;-87
2021/09/26 01:43:18;;;;;;;4.05;3.75;;;;;;;20.41;71.24;95829.56;5010327;28;20206;-86
2021/09/26 01:45:52;;;;;;;4.95;4.13;;;;;;;20.35;71.30;95833.09;5010277;28;20719;-87
2021/09/26 01:48:25;;;;;;;4.35;4.05;;;;;;;20.38;71.17;95829.25;5010234;28;20674;-86
2021/09/26 01:50:59;;;;;;;4.25;3.95;;;;;;;20.40;70.78;95830.59;5045044;28;20193;-86
2021/09/26 01:53:26;;;;;;;4.28;3.80;;;;;;;20.42;70.75;95836.38;5029637;28;20209;-86
2021/09/26 01:55:55;;;;;;;4.43;3.63;;;;;;;20.41;71.32;95834.00;5029829;28;20206;-86
2021/09/26 01:58:26;;;;;;;4.00;3.70;;;;;;;20.41;70.88;95840.03;5029692;28;20209;-86
2021/09/26 02:00:54;;;;;;;4.10;3.80;;;;;;;20.42;71.20;95839.00;5030112;28;20230;-86
2021/09/26 02:03:21;;;;;;;4.10;3.70;;;;;;;20.37;71.65;95836.31;5030129;28;20256;-86
2021/09/26 02:05:48;;;;;;;4.25;3.85;;;;;;;20.34;71.79;95832.31;5029755;28;20210;-86
2021/09/26 02:08:16;;;;;;;4.10;3.80;;;;;;;20.29;72.19;95829.56;5029747;28;20202;-86
2021/09/26 02:10:44;;;;;;;4.10;3.80;;;;;;;20.26;72.53;95822.19;5029870;28;20236;-87
2021/09/26 02:13:12;;;;;;;4.20;3.80;;;;;;;20.26;72.35;95827.41;5029979;28;20241;-86
2021/09/26 02:15:43;;;;;;;4.60;3.60;;;;;;;20.24;72.45;95823.44;5029726;28;20198;-86
2021/09/26 02:18:11;;;;;;;4.25;3.90;;;;;;;20.27;72.43;95830.81;5029725;28;20193;-86
2021/09/26 02:20:39;;;;;;;4.28;3.97;;;;;;;20.26;72.50;95832.66;5034760;28;20225;-86
2021/09/26 02:23:06;;;;;;;4.20;3.90;;;;;;;20.24;72.75;95826.06;5049229;28;20205;-86
2021/09/26 02:25:33;;;;;;;4.57;4.18;;;;;;;20.19;73.08;95833.81;5048982;28;20206;-86
2021/09/26 02:28:01;;;;;;;4.40;4.00;;;;;;;20.21;73.24;95829.13;5042177;28;20214;-86
2021/09/26 02:30:27;;;;;;;4.63;4.30;;;;;;;20.25;72.94;95825.03;5029162;28;20601;-86
2021/09/26 02:32:55;;;;;;;4.45;3.60;;;;;;;20.29;72.82;95821.72;5029550;28;20636;-87
2021/09/26 02:35:23;;;;;;;4.28;3.90;;;;;;;20.29;73.61;95826.97;5029276;28;20206;-88
2021/09/26 02:37:49;;;;;;;5.45;4.95;;;;;;;20.30;73.11;95820.69;5029223;28;20202;-86
2021/09/26 02:40:17;;;;;;;5.53;4.47;;;;;;;20.26;73.64;95816.16;5029707;28;20234;-86
2021/09/26 02:43:03;;;;;;;4.05;3.75;;;;;;;20.18;73.77;95817.31;5029548;28;20202;-86
2021/09/26 02:45:37;;;;;;;4.38;3.95;;;;;;;20.18;73.78;95824.38;5029537;28;20205;-86
2021/09/26 02:48:10;;;;;;;4.30;3.90;;;;;;;20.16;73.84;95821.19;5029542;28;20205;-86
2021/09/26 02:50:39;;;;;;;4.50;4.10;;;;;;;20.15;74.11;95817.00;5044673;28;20224;-86
2021/09/26 02:53:07;;;;;;;4.75;4.10;;;;;;;20.11;74.29;95813.25;5049294;28;20208;-86
2021/09/26 02:55:34;;;;;;;4.50;4.15;;;;;;;20.13;73.96;95814.59;5049140;28;20209;-86
2021/09/26 02:58:01;;;;;;;4.15;3.80;;;;;;;20.10;74.65;95812.44;5042477;28;20217;-86
2021/09/26 03:00:33;;;;;;;4.68;4.28;;;;;;;20.08;74.16;95811.09;5029211;28;20229;-86
2021/09/26 03:03:18;;;;;;;4.57;4.18;;;;;;;20.04;74.65;95809.94;5028930;28;20704;-86
2021/09/26 03:05:48;;;;;;;4.47;4.07;;;;;;;20.00;75.24;95809.63;5028709;28;20213;-87
2021/09/26 03:08:15;;;;;;;4.50;4.10;;;;;;;20.01;74.79;95811.22;5028912;28;20233;-86
2021/09/26 03:10:45;;;;;;;5.38;3.65;;;;;;;20.06;74.25;95810.50;5029311;28;20253;-86
2021/09/26 03:13:11;;;;;;;4.57;4.18;;;;;;;20.05;74.40;95812.34;5028958;28;20700;-88
2021/09/26 03:15:38;;;;;;;4.55;4.15;;;;;;;20.08;74.39;95819.72;5029062;28;20206;-86
2021/09/26 03:18:05;;;;;;;4.28;3.97;;;;;;;20.07;74.24;95817.34;5029160;28;20627;-86
2021/09/26 03:20:31;;;;;;;6.63;3.80;;;;;;;20.00;74.44;95814.88;5032754;28;20222;-89
2021/09/26 03:23:00;;;;;;;4.57;4.18;;;;;;;19.98;74.79;95811.69;5033187;28;20577;-85
2021/09/26 03:25:26;;;;;;;4.90;3.95;;;;;;;19.95;74.85;95806.91;5032836;28;20214;-86
2021/09/26 03:27:53;;;;;;;4.15;3.75;;;;;;;19.97;74.25;95808.28;5032018;28;20268;-87
2021/09/26 03:30:19;;;;;;;4.13;3.83;;;;;;;19.99;74.48;95808.03;5032943;28;20624;-86
2021/09/26 03:32:46;;;;;;;5.45;4.45;;;;;;;19.98;74.51;95796.78;5032807;28;20198;-88
2021/09/26 03:35:13;;;;;;;5.88;3.72;;;;;;;19.99;74.46;95792.38;5032447;28;20197;-86
2021/09/26 03:37:40;;;;;;;4.55;4.10;;;;;;;19.97;74.40;95799.63;5032749;28;20764;-86
2021/09/26 03:40:10;;;;;;;4.38;4.07;;;;;;;19.98;73.99;95796.78;5032270;28;20253;-86
2021/09/26 03:42:37;;;;;;;4.32;3.83;;;;;;;19.90;74.37;95802.34;5032415;28;20206;-86
2021/09/26 03:45:04;;;;;;;4.30;3.90;;;;;;;19.89;74.16;95802.59;5032206;28;20205;-86
2021/09/26 03:47:31;;;;;;;4.30;3.90;;;;;;;19.85;74.39;95794.41;5032644;28;20221;-86
2021/09/26 03:49:57;;;;;;;4.65;4.25;;;;;;;19.86;74.06;95796.00;5042049;28;20255;-86
2021/09/26 03:52:24;;;;;;;4.50;4.10;;;;;;;19.88;74.35;95785.31;5052240;28;20251;-86
2021/09/26 03:54:51;;;;;;;4.43;3.78;;;;;;;19.87;73.98;95783.72;5051822;28;20205;-86
2021/09/26 03:57:19;;;;;;;4.15;3.75;;;;;;;19.88;73.95;95782.69;5052195;28;20584;-86
2021/09/26 03:59:46;;;;;;;4.45;4.07;;;;;;;19.87;73.50;95776.69;5052312;28;20233;-86
2021/09/26 04:02:13;;;;;;;4.40;4.00;;;;;;;19.80;74.27;95781.25;5052315;28;20232;-87
2021/09/26 04:04:39;;;;;;;5.75;3.90;;;;;;;19.77;73.99;95778.28;5052111;28;20205;-86
2021/09/26 04:07:06;;;;;;;4.20;3.78;;;;;;;19.74;74.48;95773.53;5052192;28;20235;-86
2021/09/26 04:09:33;;;;;;;4.63;4.15;;;;;;;19.74;74.13;95765.69;5051892;28;20218;-89
2021/09/26 04:11:59;;;;;;;4.45;4.07;;;;;;;19.70;74.21;95773.19;5052320;28;20205;-86
2021/09/26 04:14:27;;;;;;;4.18;3.80;;;;;;;19.67;74.40;95774.44;5032915;28;20206;-86
2021/09/26 04:16:53;;;;;;;5.22;4.28;;;;;;;19.68;74.16;95772.59;5031818;28;20198;-87
2021/09/26 04:19:23;;;;;;;4.57;4.18;;;;;;;19.65;74.40;95773.84;5031730;28;20218;-87
2021/09/26 04:21:50;;;;;;;4.55;3.95;;;;;;;19.64;74.33;95768.84;5032121;28;20305;-86
2021/09/26 04:24:18;;;;;;;4.32;3.70;;;;;;;19.57;74.82;95770.81;5031413;28;20806;-86
2021/09/26 04:26:45;;;;;;;4.80;4.22;;;;;;;19.62;74.01;95773.53;5031451;28;20206;-86
2021/09/26 04:29:11;;;;;;;4.63;3.63;;;;;;;19.57;74.43;95769.00;5030815;28;20701;-86
2021/09/26 04:31:39;;;;;;;4.20;3.90;;;;;;;19.58;73.86;95767.97;5031610;28;20191;-86
2021/09/26 04:34:06;;;;;;;5.47;3.80;;;;;;;19.52;73.93;95762.84;5031201;28;20194;-86
2021/09/26 04:36:32;;;;;;;4.35;3.85;;;;;;;19.51;74.03;95763.88;5031437;28;20209;-86
2021/09/26 04:38:59;;;;;;;4.28;3.88;;;;;;;19.53;74.10;95754.78;5031302;28;20288;-89
2021/09/26 04:41:25;;;;;;;4.35;3.97;;;;;;;19.53;74.10;95754.78;5031765;28;20271;-87
2021/09/26 04:43:54;;;;;;;6.07;3.80;;;;;;;19.46;73.97;95761.13;5031765;28;20206;-86
2021/09/26 04:46:20;;;;;;;4.25;3.85;;;;;;;19.48;74.01;95759.06;5031524;28;20198;-87
2021/09/26 04:48:48;;;;;;;4.35;3.92;;;;;;;19.48;74.03;95746.81;5031632;28;20233;-86
2021/09/26 04:51:14;;;;;;;4.20;3.80;;;;;;;19.44;74.18;95748.28;5051290;28;20197;-87
2021/09/26 04:53:41;;;;;;;4.45;3.63;;;;;;;19.42;73.89;95744.34;5051426;28;20205;-86
2021/09/26 04:56:08;;;;;;;5.80;3.90;;;;;;;19.40;73.89;95746.38;5050914;28;20583;-87
2021/09/26 04:58:34;;;;;;;4.10;3.55;;;;;;;19.23;74.54;95754.09;5051514;28;20212;-86
2021/09/26 05:01:01;;;;;;;6.85;3.90;;;;;;;19.23;74.88;95752.28;5050866;28;20225;-86
2021/09/26 05:03:27;;;;;;;4.43;4.03;;;;;;;19.22;74.98;95736.84;5050854;28;20680;-86
2021/09/26 05:05:55;;;;;;;5.28;4.50;;;;;;;19.19;74.88;95737.28;5050268;28;20352;-87
2021/09/26 05:08:21;;;;;;;4.80;4.40;;;;;;;19.02;76.03;95737.16;5050847;28;20591;-88
2021/09/26 05:10:48;;;;;;;4.40;3.97;;;;;;;18.95;76.83;95736.47;5050687;28;20198;-88
2021/09/26 05:13:14;;;;;;;4.53;4.07;;;;;;;18.90;77.01;95742.34;5050733;28;20201;-87
2021/09/26 05:15:40;;;;;;;6.28;4.20;;;;;;;18.98;76.92;95741.22;5050414;28;20209;-88
2021/09/26 05:18:07;;;;;;;6.85;4.50;;;;;;;19.11;76.11;95754.06;5050646;28;20202;-88
2021/09/26 05:20:33;;;;;;;6.22;4.38;;;;;;;19.18;75.45;95756.56;5045475;28;20222;-86
2021/09/26 05:23:01;;;;;;;4.75;4.35;;;;;;;19.19;75.38;95758.16;5030976;28;20202;-90
2021/09/26 05:25:28;;;;;;;4.38;3.92;;;;;;;19.23;75.59;95761.94;5030539;28;20489;-86
2021/09/26 05:27:55;;;;;;;4.88;4.00;;;;;;;19.27;75.26;95763.03;5030358;28;20256;-86
2021/09/26 05:30:21;;;;;;;4.57;4.18;;;;;;;19.27;74.80;95766.44;5027362;28;20218;-86
2021/09/26 05:32:48;;;;;;;5.43;4.20;;;;;;;19.29;74.81;95766.22;5050321;28;20584;-87
2021/09/26 05:35:15;;;;;;;4.82;4.20;;;;;;;19.26;75.14;95761.44;5050111;28;20668;-87
2021/09/26 05:37:41;;;;;;;4.72;3.97;;;;;;;19.29;74.83;95764.41;5050388;28;20205;-87
2021/09/26 05:40:11;;;;;;;4.60;4.00;;;;;;;19.31;75.10;95769.41;5028142;28;20223;-87
2021/09/26 05:42:38;;;;;;;4.88;4.40;;;;;;;19.28;75.55;95764.63;5027973;28;20724;-88
2021/09/26 05:45:06;;;;;;;4.95;3.97;;;;;;;19.27;75.05;95765.66;5028786;28;20190;-87
2021/09/26 05:47:32;;;;;;;4.97;3.92;;;;;;;19.26;74.86;95757.03;5029123;28;20620;-88
2021/09/26 05:50:01;;;;;;;5.50;4.18;;;;;;;19.25;75.31;95759.84;5028936;28;20222;-86
2021/09/26 05:52:28;;;;;;;4.68;4.20;;;;;;;19.31;74.84;95754.53;5029296;28;20202;-86
2021/09/26 05:54:54;;;;;;;4.68;3.97;;;;;;;19.36;74.69;95753.88;5029198;28;20202;-86
2021/09/26 05:57:22;;;;;;;4.38;3.97;;;;;;;19.29;74.54;95750.56;5029047;28;20198;-88
2021/09/26 05:59:48;;;;;;;4.43;4.03;;;;;;;19.22;75.30;95748.06;5028366;28;20222;-86
2021/09/26 06:02:22;;;;;;;4.38;3.97;;;;;;;19.14;75.78;95745.78;5028893;28;20291;-89
2021/09/26 06:04:51;;;;;;;4.38;3.80;;;;;;;19.17;75.88;95750.56;5029577;28;20202;-87
2021/09/26 06:07:18;;;;;;;4.43;4.03;;;;;;;19.20;75.54;95762.38;5029954;28;20209;-88
2021/09/26 06:09:45;;;;;;;4.35;3.80;;;;;;;19.29;75.08;95748.75;5028622;28;20233;-86
2021/09/26 06:12:12;;;;;;;5.55;4.13;;;;;;;19.41;74.77;95755.81;5028990;28;20237;-87
2021/09/26 06:14:41;;;;;;;6.68;5.53;;;;;;;19.48;74.78;95766.91;5031756;28;20196;-86
2021/09/26 06:17:07;;;;;;;14.65;13.20;;;;;;;19.54;74.76;95772.06;5028589;28;20205;-86
2021/09/26 06:19:34;;;;;;;11.82;10.10;;;;;;;19.66;74.34;95783.28;5045769;28;20221;-87
2021/09/26 06:22:01;;;;;;;5.60;4.57;;;;;;;19.75;73.16;95783.75;5044706;28;20237;-87
2021/09/26 06:24:30;;;;;;;7.97;3.80;;;;;;;19.85;72.75;95778.72;5028286;28;20202;-87
2021/09/26 06:26:56;;;;;;;6.38;5.72;;;;;;;19.93;73.13;95780.19;5028661;28;20840;-86
2021/09/26 06:29:23;;;;;;;16.23;14.68;;;;;;;20.01;72.63;95780.63;5028091;28;20229;-87
2021/09/26 06:31:52;;;;;;;7.03;5.72;;;;;;;20.09;72.65;95784.72;5041728;28;20209;-88
2021/09/26 06:34:36;;;;;;;5.78;5.28;;;;;;;20.15;72.10;95778.56;5039660;28;20194;-86
2021/09/26 06:37:07;;;;;;;5.90;4.65;;;;;;;20.22;72.48;95778.41;5028474;28;20685;-86
2021/09/26 06:39:34;;;;;;;6.30;4.43;;;;;;;20.30;72.10;95780.69;5027947;28;20222;-86
2021/09/26 06:42:32;;;;;;;7.82;4.18;;;;;;;20.44;71.43;95789.06;5028426;28;20210;-90
2021/09/26 06:45:29;;;;;;;4.60;4.20;;;;;;;20.71;70.21;95784.88;5028567;28;20198;-88
2021/09/26 06:48:21;;;;;;;;;;;;;;;;;;;;;
2021/09/26 06:50:51;;;;;;;5.88;4.15;;;;;;;21.15;67.98;95777.25;5030675;28;20693;-83
2021/09/26 06:53:35;;;;;;;5.63;3.60;;;;;;;21.30;66.75;95774.88;5035609;28;20268;-83
2021/09/26 06:59:01;;;;;;;4.20;3.80;;;;;;;21.46;66.01;95768.03;5037299;28;20260;-83
2021/09/26 07:01:32;;;;;;;5.07;3.90;;;;;;;21.48;66.11;95772.03;5037536;28;20728;-82
2021/09/26 07:04:00;;;;;;;5.13;3.70;;;;;;;21.75;65.38;95774.75;5036943;28;20260;-81
2021/09/26 07:06:26;;;;;;;3.45;3.17;;;;;;;21.92;64.78;95774.72;5036762;28;20198;-84
2021/09/26 07:09:17;;;;;;;3.95;3.20;;;;;;;22.21;63.05;95776.16;5069212;22;20237;-88
2021/09/26 07:11:43;;;;;;;4.72;3.45;;;;;;;22.40;61.72;95774.78;5054365;28;20280;-86
2021/09/26 07:14:10;;;;;;;5.22;3.20;;;;;;;21.98;61.85;95758.00;5056181;28;20201;-86
2021/09/26 07:16:36;;;;;;;4.05;3.35;;;;;;;21.73;63.17;95760.31;5056685;28;20208;-86
2021/09/26 07:19:05;;;;;;;5.03;3.67;;;;;;;21.80;63.41;95755.66;5056356;28;20955;-85
2021/09/26 07:21:31;;;;;;;6.90;3.63;;;;;;;22.01;62.28;95758.34;5056126;28;20268;-85
2021/09/26 07:23:58;;;;;;;5.55;3.20;;;;;;;22.24;62.51;95762.56;5056591;28;20205;-85
2021/09/26 07:26:32;;;;;;;3.78;3.15;;;;;;;22.50;60.69;95757.59;5070354;28;20204;-86
2021/09/26 07:28:58;;;;;;;4.20;3.40;;;;;;;22.58;59.73;95763.16;5076709;28;20357;-85
2021/09/26 07:31:37;;;;;;;6.35;3.72;;;;;;;22.75;60.58;95761.25;5062018;28;20214;-86
2021/09/26 07:34:05;;;;;;;6.07;3.47;;;;;;;22.75;58.46;95755.19;5055959;28;20251;-85
2021/09/26 07:36:33;;;;;;;4.05;3.05;;;;;;;22.82;59.30;95758.44;5058955;28;20202;-84
2021/09/26 07:39:00;;;;;;;23.15;20.73;;;;;;;23.01;59.87;95754.41;5056539;28;20613;-86
2021/09/26 07:41:26;;;;;;;6.78;5.18;;;;;;;23.25;57.92;95749.63;5057184;28;20261;-85
2021/09/26 07:43:57;;;;;;;4.55;3.40;;;;;;;23.24;57.34;95740.16;5057386;28;20539;-85
2021/09/26 07:46:26;;;;;;;5.00;3.28;;;;;;;23.44;57.74;95747.38;5058126;28;20304;-86
2021/09/26 07:48:53;;;;;;;4.82;3.05;;;;;;;23.67;57.48;95746.22;5060073;28;20227;-85
2021/09/26 07:51:21;;;;;;;3.30;3.00;;;;;;;23.74;55.69;95754.69;5078197;28;20204;-84
2021/09/26 07:53:50;;;;;;;4.68;3.10;;;;;;;23.86;55.07;95763.16;5060858;28;20201;-86
2021/09/26 07:56:19;;;;;;;3.15;2.83;;;;;;;23.90;55.17;95758.97;5058304;28;20201;-85
2021/09/26 07:58:47;;;;;;;4.97;3.13;;;;;;;23.81;54.60;95751.84;5058635;28;20229;-86
2021/09/26 08:01:15;;;;;;;3.92;2.90;;;;;;;23.82;55.29;95750.78;5058066;28;20205;-85
2021/09/26 08:03:44;;;;;;;4.07;2.90;;;;;;;23.85;55.35;95743.19;5056520;28;20684;-84
2021/09/26 08:06:14;;;;;;;2.78;2.58;;;;;;;24.19;55.05;95740.16;5055079;28;20209;-85
2021/09/26 08:08:43;;;;;;;3.60;2.88;;;;;;;24.49;54.11;95739.47;5056506;28;20217;-85
2021/09/26 08:11:10;;;;;;;3.10;2.80;;;;;;;24.62;53.59;95741.63;5056198;28;20293;-85
2021/09/26 08:13:39;;;;;;;6.95;3.28;;;;;;;24.76;53.45;95740.06;5055162;28;20208;-84
2021/09/26 08:16:23;;;;;;;3.47;3.10;;;;;;;25.00;52.77;95749.06;5055929;28;20296;-85
2021/09/26 08:18:59;;;;;;;3.55;2.92;;;;;;;25.33;52.95;95752.22;5034709;28;20236;-85
2021/09/26 08:21:27;;;;;;;6.07;3.80;;;;;;;25.45;51.48;95755.34;5032468;28;20206;-87
2021/09/26 08:23:55;;;;;;;9.68;3.20;;;;;;;25.61;52.15;95753.47;5031585;28;20205;-87
2021/09/26 08:26:29;;;;;;;4.70;2.80;;;;;;;25.81;49.38;95740.28;5032011;28;20216;-87
2021/09/26 08:29:01;;;;;;;6.25;2.78;;;;;;;25.85;49.72;95733.41;5030960;28;20881;-86
2021/09/26 08:31:31;;;;;;;6.03;3.03;;;;;;;25.79;49.31;95737.09;5043636;28;20728;-86
2021/09/26 08:33:59;;;;;;;6.28;2.97;;;;;;;25.92;49.63;95736.56;5050846;28;20194;-86
2021/09/26 08:36:26;;;;;;;4.30;2.90;;;;;;;26.09;49.76;95737.00;5050820;28;20748;-87
2021/09/26 08:38:53;;;;;;;5.18;2.67;;;;;;;26.33;49.25;95744.34;5050956;28;20225;-87
2021/09/26 08:41:26;;;;;;;5.22;2.95;;;;;;;26.55;49.38;95743.97;5050353;28;20193;-87
2021/09/26 08:43:55;;;;;;;4.65;2.72;;;;;;;26.69;47.84;95747.56;5051056;28;20217;-86
2021/09/26 08:46:22;;;;;;;7.20;2.92;;;;;;;26.76;47.46;95738.25;5050711;28;20275;-87
2021/09/26 08:48:55;;;;;;;5.40;2.47;;;;;;;26.62;45.17;95747.06;5050739;28;20731;-87
2021/09/26 08:51:22;;;;;;;5.72;2.70;;;;;;;26.68;45.93;95753.91;5069818;28;20625;-87
2021/09/26 08:53:53;;;;;;;13.80;9.80;;;;;;;26.81;45.95;95753.28;5070624;28;20596;-86
2021/09/26 08:56:32;;;;;;;6.85;6.10;;;;;;;26.53;46.41;95748.72;5070312;28;20212;-87
2021/09/26 08:59:03;;;;;;;6.05;3.00;;;;;;;26.01;46.65;95750.75;5054899;28;20275;-87
2021/09/26 09:04:37;;;;;;;3.78;2.20;;;;;;;25.13;48.73;95760.91;4932118;28;20201;-86
2021/09/26 09:07:08;;;;;;;8.10;2.67;;;;;;;24.91;49.54;95760.34;5044012;28;20201;-86
2021/09/26 09:10:00;;;;;;;4.72;2.40;;;;;;;24.69;49.53;95768.47;5049205;28;20241;-87
2021/09/26 09:12:36;;;;;;;7.15;2.67;;;;;;;24.58;50.07;95764.25;5039818;28;20240;-87
2021/09/26 09:15:13;;;;;;;3.38;2.30;;;;;;;24.40;50.85;95770.78;5050134;28;20684;-87
2021/09/26 09:17:47;;;;;;;3.10;2.78;;;;;;;24.23;50.84;95770.97;5062971;28;20207;-87
2021/09/26 09:20:23;;;;;;;4.78;2.75;;;;;;;24.18;52.13;95772.78;5069998;28;20567;-87
2021/09/26 09:22:53;;;;;;;4.18;2.40;;;;;;;24.22;51.99;95765.97;5070764;28;20316;-86
2021/09/26 09:25:41;;;;;;;3.35;2.63;;;;;;;24.16;50.99;95754.63;5070120;28;20557;-86
2021/09/26 09:28:13;;;;;;;4.70;2.20;;;;;;;24.20;51.11;95753.06;5063015;28;20225;-87
2021/09/26 09:30:46;;;;;;;3.42;2.45;;;;;;;24.22;52.37;95763.31;5049712;28;20201;-87
2021/09/26 09:33:16;;;;;;;6.68;2.70;;;;;;;24.29;51.85;95763.88;5049814;28;20263;-89
2021/09/26 09:35:46;;;;;;;3.45;2.63;;;;;;;24.23;52.59;95763.06;5050301;28;20213;-87
2021/09/26 09:38:19;;;;;;;4.50;2.60;;;;;;;24.23;52.19;95768.34;5050551;28;20236;-87
2021/09/26 09:40:49;;;;;;;6.88;2.80;;;;;;;24.25;52.46;95765.44;5049405;28;20193;-87
2021/09/26 09:43:19;;;;;;;5.47;2.50;;;;;;;24.32;52.49;95766.00;5049066;28;20316;-86
2021/09/26 09:45:54;;;;;;;4.63;2.95;;;;;;;24.34;52.30;95764.72;5049823;28;20197;-87
2021/09/26 09:48:23;;;;;;;5.15;2.88;;;;;;;24.32;52.28;95766.00;5049080;28;20270;-87
2021/09/26 09:51:01;;;;;;;4.85;2.30;;;;;;;24.37;51.89;95764.19;5057489;28;20204;-87
2021/09/26 09:53:37;;;;;;;4.00;2.33;;;;;;;24.49;52.43;95768.44;5049320;28;20198;-87
2021/09/26 09:56:17;;;;;;;4.10;2.60;;;;;;;24.51;52.17;95769.75;5049993;28;20203;-86
2021/09/26 09:59:00;;;;;;;3.28;2.42;;;;;;;24.62;51.00;95768.75;5048926;28;20270;-87
2021/09/26 10:01:32;;;;;;;5.63;2.65;;;;;;;24.93;51.30;95764.31;5049709;28;20668;-87
2021/09/26 10:04:00;;;;;;;5.65;2.45;;;;;;;25.18;51.22;95757.50;5050202;28;20231;-87
2021/09/26 10:06:44;;;;;;;3.20;2.22;;;;;;;25.44;48.37;95756.41;5049852;28;20292;-87
2021/09/26 10:09:28;;;;;;;3.40;2.47;;;;;;;25.62;48.37;95761.16;5048980;28;20722;-87
2021/09/26 10:12:01;;;;;;;7.75;3.00;;;;;;;25.78;49.19;95760.09;5048527;28;20245;-87
2021/09/26 10:14:31;;;;;;;3.88;2.63;;;;;;;25.81;47.73;95770.06;5048728;28;20197;-88
2021/09/26 10:17:16;;;;;;;8.57;3.00;;;;;;;25.88;48.39;95766.38;5056173;28;20193;-88
2021/09/26 10:19:53;;;;;;;9.38;2.63;;;;;;;26.01;46.93;95777.16;5068713;28;20228;-87
2021/09/26 10:22:19;;;;;;;5.18;2.65;;;;;;;25.91;46.76;95776.41;5069103;28;20220;-88
2021/09/26 10:24:50;;;;;;;7.30;2.78;;;;;;;25.89;47.51;95781.94;5064577;28;20200;-88
2021/09/26 10:27:22;;;;;;;5.15;2.40;;;;;;;25.64;46.98;95785.41;5052026;28;20290;-85
2021/09/26 10:30:07;;;;;;;4.93;2.53;;;;;;;25.40;46.68;95787.03;5048755;28;20294;-86
2021/09/26 10:32:36;;;;;;;6.22;2.67;;;;;;;25.29;47.06;95786.22;5030256;28;20208;-86
2021/09/26 10:35:04;;;;;;;9.82;3.90;;;;;;;25.20;47.80;95789.66;5043798;28;20197;-85
2021/09/26 10:37:31;;;;;;;5.03;2.90;;;;;;;25.12;47.27;95786.47;5049002;28;20209;-86
2021/09/26 10:40:00;;;;;;;5.97;3.22;;;;;;;25.07;47.22;95781.19;5047926;28;20671;-85
2021/09/26 10:42:36;;;;;;;4.30;2.40;;;;;;;25.12;46.92;95772.50;5048377;28;20233;-88
2021/09/26 10:45:10;;;;;;;6.38;2.60;;;;;;;25.09;46.77;95775.66;5049119;28;20304;-88
2021/09/26 10:47:40;;;;;;;4.72;2.70;;;;;;;25.15;47.33;95776.47;5049400;28;20284;-88
2021/09/26 10:50:12;;;;;;;5.35;2.15;;;;;;;25.11;47.13;95778.84;5059018;28;20220;-87
2021/09/26 10:52:46;;;;;;;4.53;2.40;;;;;;;25.10;47.55;95778.03;5069127;28;20197;-86
2021/09/26 10:55:37;;;;;;;2.55;2.35;;;;;;;25.15;47.35;95760.66;5068689;28;20367;-88
2021/09/26 10:58:20;;;;;;;7.18;2.47;;;;;;;25.25;48.18;95765.91;5058019;28;20286;-87
2021/09/26 11:01:09;;;;;;;5.18;2.88;;;;;;;25.30;48.47;95763.28;5067942;28;20220;-88
2021/09/26 11:03:44;;;;;;;3.80;2.60;;;;;;;25.29;48.44;95765.13;5025930;28;20233;-88
2021/09/26 11:06:34;;;;;;;4.05;2.55;;;;;;;25.36;48.45;95768.28;5025817;28;20669;-86
2021/09/26 11:09:03;;;;;;;6.82;2.40;;;;;;;25.40;49.22;95769.31;5060766;28;20228;-87
2021/09/26 11:11:44;;;;;;;4.55;2.72;;;;;;;25.48;49.79;95768.00;5067271;28;20204;-87
2021/09/26 11:14:13;;;;;;;5.47;2.45;;;;;;;25.52;48.08;95769.06;5068903;28;20197;-87
2021/09/26 11:16:51;;;;;;;8.73;7.07;;;;;;;25.64;48.10;95760.88;5064120;28;20186;-88
2021/09/26 11:19:19;;;;;;;10.02;7.53;;;;;;;25.71;47.81;95751.66;5048542;28;20599;-88
2021/09/26 11:22:05;;;;;;;7.70;3.00;;;;;;;25.80;46.39;95749.25;5047598;28;20202;-88
2021/09/26 11:24:55;;;;;;;5.53;2.63;;;;;;;25.85;46.09;95743.97;5048913;28;20225;-88
2021/09/26 11:31:40;;;;;;;7.45;2.50;;;;;;;25.87;45.06;95735.78;4936240;28;20208;-89
2021/09/26 11:34:10;;;;;;;11.13;4.68;;;;;;;26.04;46.81;95741.50;4988695;28;20282;-89
2021/09/26 11:36:53;;;;;;;7.35;2.72;;;;;;;26.14;45.25;95739.63;5047675;28;20228;-89
2021/09/26 11:39:37;;;;;;;5.03;2.50;;;;;;;26.15;45.38;95732.50;5049053;28;20248;-86
2021/09/26 11:42:27;;;;;;;6.63;2.60;;;;;;;26.30;46.62;95732.47;5054877;28;20244;-85
2021/09/26 11:44:54;;;;;;;5.95;2.90;;;;;;;26.34;45.47;95722.16;5034609;28;20228;-86
2021/09/26 11:47:21;;;;;;;7.90;3.05;;;;;;;26.44;46.17;95720.22;5035427;28;20532;-85
2021/09/26 11:50:06;;;;;;;7.03;2.92;;;;;;;26.55;46.17;95720.97;5034956;28;20287;-86
2021/09/26 11:52:47;;;;;;;10.57;2.70;;;;;;;26.67;48.55;95720.63;5035777;28;20205;-85
2021/09/26 11:55:16;;;;;;;5.22;3.22;;;;;;;26.75;49.70;95712.88;5035391;28;20681;-83
2021/09/26 11:57:44;;;;;;;8.70;3.80;;;;;;;26.87;49.77;95706.47;5035366;28;20218;-84
2021/09/26 12:00:25;;;;;;;7.63;3.30;;;;;;;26.95;49.48;95705.91;5035687;28;20266;-84
2021/09/26 12:02:51;;;;;;;5.57;3.10;;;;;;;26.90;49.59;95709.38;5037403;28;20222;-86